createdAt,value
2022-08-17T00:02:25.513Z,18.42
2022-08-17T00:04:55.618Z,18.35
2022-08-17T00:07:23.325Z,18.20
2022-08-17T00:09:50.430Z,17.99
2022-08-17T00:12:43.611Z,18.44
2022-08-17T00:15:10.606Z,18.37
2022-08-17T00:17:38.315Z,18.43
2022-08-17T00:20:06.308Z,18.45
2022-08-17T00:22:46.686Z,18.54
2022-08-17T00:25:17.300Z,18.52
2022-08-17T00:27:44.370Z,18.50
2022-08-17T00:30:12.624Z,18.51
2022-08-17T00:33:12.286Z,18.39
2022-08-17T00:35:33.528Z,18.38
2022-08-17T00:38:00.572Z,18.39
2022-08-17T00:40:27.604Z,18.30
2022-08-17T00:43:20.868Z,18.38
2022-08-17T00:45:49.284Z,18.39
2022-08-17T00:48:29.517Z,18.30
2022-08-17T00:51:06.736Z,18.19
2022-08-17T00:53:38.641Z,18.28
2022-08-17T00:56:10.754Z,18.25
2022-08-17T00:58:38.491Z,18.25
2022-08-17T01:01:08.538Z,18.19
2022-08-17T01:03:38.057Z,17.76
2022-08-17T01:06:06.572Z,17.90
2022-08-17T01:08:35.384Z,17.92
2022-08-17T01:11:03.067Z,17.43
2022-08-17T01:13:41.431Z,17.79
2022-08-17T01:16:17.074Z,17.80
2022-08-17T01:18:47.018Z,17.69
2022-08-17T01:21:40.264Z,17.63
2022-08-17T01:24:08.363Z,17.68
2022-08-17T01:26:36.839Z,17.65
2022-08-17T01:29:05.211Z,17.70
2022-08-17T01:31:39.373Z,17.59
2022-08-17T01:34:10.556Z,17.36
2022-08-17T01:36:40.075Z,17.42
2022-08-17T01:39:12.094Z,17.32
2022-08-17T01:41:40.985Z,17.26
2022-08-17T01:44:08.428Z,17.30
2022-08-17T01:46:37.136Z,17.20
2022-08-17T01:49:10.616Z,17.10
2022-08-17T01:51:39.073Z,16.86
2022-08-17T01:54:10.608Z,17.04
2022-08-17T01:56:44.292Z,17.08
2022-08-17T01:59:16.084Z,17.19
2022-08-17T02:01:43.499Z,17.17
2022-08-17T02:04:11.905Z,17.04
2022-08-17T02:06:45.268Z,17.08
2022-08-17T02:09:23.273Z,17.07
2022-08-17T02:11:54.705Z,17.12
2022-08-17T02:14:23.393Z,17.02
2022-08-17T02:16:50.722Z,17.05
2022-08-17T02:19:18.168Z,17.02
2022-08-17T02:21:48.349Z,17.00
2022-08-17T02:24:58.741Z,16.96
2022-08-17T02:27:10.166Z,16.87
2022-08-17T02:29:37.741Z,16.93
2022-08-17T02:32:05.191Z,16.94
2022-08-17T02:34:32.636Z,16.88
2022-08-17T02:36:59.668Z,16.91
2022-08-17T02:39:26.795Z,16.89
2022-08-17T02:42:01.902Z,16.80
2022-08-17T02:44:40.010Z,16.54
2022-08-17T02:47:09.377Z,16.82
2022-08-17T02:49:37.121Z,16.77
2022-08-17T02:52:06.606Z,16.91
2022-08-17T02:54:40.017Z,16.94
2022-08-17T02:57:10.241Z,16.78
2022-08-17T02:59:39.243Z,16.56
2022-08-17T03:02:08.071Z,16.85
2022-08-17T03:04:35.633Z,16.85
2022-08-17T03:07:04.958Z,16.87
2022-08-17T03:09:32.742Z,16.87
2022-08-17T03:12:08.412Z,16.80
2022-08-17T03:14:41.716Z,16.85
2022-08-17T03:17:10.180Z,16.84
2022-08-17T03:19:42.893Z,16.82
2022-08-17T03:22:36.556Z,16.75
2022-08-17T03:24:58.076Z,16.82
2022-08-17T03:27:25.213Z,16.76
2022-08-17T03:29:52.237Z,16.82
2022-08-17T03:32:20.571Z,16.81
2022-08-17T03:34:47.903Z,16.74
2022-08-17T03:37:15.273Z,16.72
2022-08-17T03:39:42.831Z,16.51
2022-08-17T03:42:32.247Z,16.67
2022-08-17T03:45:02.001Z,16.60
2022-08-17T03:47:47.951Z,16.65
2022-08-17T03:50:35.308Z,16.59
2022-08-17T03:53:27.742Z,16.63
2022-08-17T03:56:17.494Z,16.72
2022-08-17T03:58:45.794Z,16.76
2022-08-17T04:01:13.919Z,16.63
2022-08-17T04:03:40.998Z,16.76
2022-08-17T04:06:08.055Z,16.72
2022-08-17T04:08:35.608Z,16.69
2022-08-17T04:11:02.884Z,16.75
2022-08-17T04:13:29.902Z,16.84
2022-08-17T04:15:59.119Z,16.86
2022-08-17T04:18:26.182Z,16.97
2022-08-17T04:20:53.732Z,16.94
2022-08-17T04:23:20.875Z,16.97
2022-08-17T04:25:50.085Z,16.95
2022-08-17T04:28:19.442Z,16.96
2022-08-17T04:30:47.854Z,16.93
2022-08-17T04:33:26.547Z,16.95
2022-08-17T04:35:56.384Z,17.02
2022-08-17T04:38:26.738Z,17.01
2022-08-17T04:41:13.099Z,16.94
2022-08-17T04:43:42.327Z,16.93
2022-08-17T04:46:27.025Z,16.48
2022-08-17T04:48:57.086Z,17.00
2022-08-17T04:51:39.852Z,17.05
2022-08-17T04:54:21.011Z,17.07
2022-08-17T04:56:48.102Z,17.17
2022-08-17T04:59:21.532Z,17.19
2022-08-17T05:01:51.645Z,17.26
2022-08-17T05:04:33.966Z,17.35
2022-08-17T05:07:04.474Z,17.35
2022-08-17T05:09:32.217Z,17.40
2022-08-17T05:12:03.054Z,17.08
2022-08-17T05:14:33.000Z,17.40
2022-08-17T05:17:01.478Z,17.42
2022-08-17T05:19:31.190Z,17.48
2022-08-17T05:21:58.259Z,17.53
2022-08-17T05:24:41.251Z,17.58
2022-08-17T05:27:10.944Z,17.70
2022-08-17T05:29:46.074Z,17.76
2022-08-17T05:32:38.357Z,17.85
2022-08-17T05:35:01.493Z,17.70
2022-08-17T05:37:28.599Z,18.03
2022-08-17T05:39:55.664Z,18.11
2022-08-17T05:42:23.030Z,18.31
2022-08-17T05:44:50.192Z,18.25
2022-08-17T05:47:18.292Z,18.37
2022-08-17T05:49:45.591Z,18.23
2022-08-17T05:52:37.997Z,18.40
2022-08-17T05:55:19.054Z,18.56
2022-08-17T05:57:55.917Z,18.66
2022-08-17T06:00:52.828Z,18.71
2022-08-17T06:03:49.270Z,18.75
2022-08-17T06:06:34.469Z,18.91
2022-08-17T06:09:08.673Z,19.07
2022-08-17T06:11:41.585Z,19.27
2022-08-17T06:14:14.430Z,19.39
2022-08-17T06:16:46.231Z,19.55
2022-08-17T06:19:21.583Z,19.36
2022-08-17T06:21:52.823Z,19.80
2022-08-17T06:24:37.515Z,19.83
2022-08-17T06:27:12.659Z,19.77
2022-08-17T06:30:00.174Z,20.04
2022-08-17T06:32:28.410Z,19.76
2022-08-17T06:34:55.689Z,20.09
2022-08-17T06:37:45.538Z,20.24
2022-08-17T06:40:45.458Z,20.27
2022-08-17T06:43:54.193Z,20.47
2022-08-17T06:46:36.339Z,20.44
2022-08-17T06:49:19.709Z,20.49
2022-08-17T06:51:58.044Z,20.36
2022-08-17T06:54:55.359Z,20.62
2022-08-17T06:57:28.269Z,20.79
2022-08-17T07:00:02.388Z,20.74
2022-08-17T07:03:00.675Z,20.94
2022-08-17T07:05:32.931Z,20.98
2022-08-17T07:08:18.563Z,21.13
2022-08-17T07:10:54.523Z,21.18
2022-08-17T07:13:33.165Z,21.54
2022-08-17T07:16:30.736Z,21.61
2022-08-17T07:18:59.327Z,21.76
2022-08-17T07:21:40.709Z,21.85
2022-08-17T07:24:30.558Z,22.03
2022-08-17T07:27:24.002Z,22.29
2022-08-17T07:30:10.269Z,22.28
2022-08-17T07:32:50.814Z,22.37
2022-08-17T07:35:37.635Z,22.53
2022-08-17T07:38:28.154Z,22.52
2022-08-17T07:41:01.829Z,22.62
2022-08-17T07:43:41.239Z,22.79
2022-08-17T07:46:29.765Z,22.77
2022-08-17T07:49:16.686Z,23.03
2022-08-17T07:51:43.812Z,23.15
2022-08-17T07:54:22.083Z,23.42
2022-08-17T07:56:50.668Z,23.74
2022-08-17T07:59:27.269Z,24.07
2022-08-17T08:02:02.301Z,24.24
2022-08-17T08:04:59.679Z,24.53
2022-08-17T08:07:37.193Z,24.73
2022-08-17T08:10:25.492Z,24.92
2022-08-17T08:13:22.972Z,25.09
2022-08-17T08:15:54.024Z,24.99
2022-08-17T08:18:54.423Z,25.18
2022-08-17T08:22:03.106Z,25.11
2022-08-17T08:24:52.010Z,25.30
2022-08-17T08:27:34.175Z,25.27
2022-08-17T08:30:21.269Z,25.24
2022-08-17T08:32:57.700Z,25.19
2022-08-17T08:35:30.907Z,25.01
2022-08-17T08:38:16.436Z,25.05
2022-08-17T08:41:16.352Z,25.23
2022-08-17T08:44:00.662Z,25.40
2022-08-17T08:46:59.805Z,25.53
2022-08-17T08:50:37.445Z,25.53
2022-08-17T08:53:18.853Z,25.69
2022-08-17T08:56:06.496Z,25.70
2022-08-17T08:58:44.975Z,25.70
2022-08-17T09:01:44.770Z,25.89
2022-08-17T09:05:02.616Z,25.94
2022-08-17T09:07:37.319Z,25.93
2022-08-17T09:10:39.429Z,26.04
2022-08-17T09:13:21.995Z,26.07
2022-08-17T09:15:58.983Z,26.11
2022-08-17T09:19:02.354Z,26.16
2022-08-17T09:21:33.683Z,26.09
2022-08-17T09:24:20.777Z,26.00
2022-08-17T09:26:54.360Z,25.88
2022-08-17T09:29:25.398Z,25.57
2022-08-17T09:32:03.800Z,25.63
2022-08-17T09:34:44.639Z,25.27
2022-08-17T09:37:54.084Z,25.18
2022-08-17T09:40:30.802Z,25.06
2022-08-17T09:43:30.473Z,24.80
2022-08-17T09:46:09.078Z,24.64
2022-08-17T09:48:41.947Z,24.28
2022-08-17T09:51:40.110Z,24.53
2022-08-17T09:54:38.142Z,24.58
2022-08-17T09:57:32.475Z,24.75
2022-08-17T10:00:16.929Z,24.94
2022-08-17T10:03:41.240Z,25.11
2022-08-17T10:06:21.794Z,25.55
2022-08-17T10:09:08.708Z,25.72
2022-08-17T10:12:11.133Z,25.93
2022-08-17T10:14:43.467Z,26.15
2022-08-17T10:17:26.215Z,26.53
2022-08-17T10:20:11.270Z,26.71
2022-08-17T10:23:19.685Z,26.83
2022-08-17T10:26:14.127Z,26.84
2022-08-17T10:28:58.633Z,26.70
2022-08-17T10:31:46.375Z,26.60
2022-08-17T10:34:44.467Z,26.61
2022-08-17T10:37:49.621Z,26.56
2022-08-17T10:40:45.409Z,25.99
2022-08-17T10:43:29.115Z,26.17
2022-08-17T10:46:30.090Z,25.67
2022-08-17T10:49:16.682Z,26.35
2022-08-17T10:51:47.765Z,26.53
2022-08-17T10:54:38.787Z,26.23
2022-08-17T10:57:31.593Z,26.24
2022-08-17T10:59:59.359Z,25.98
2022-08-17T11:02:27.382Z,25.85
2022-08-17T11:05:00.180Z,25.41
2022-08-17T11:07:48.825Z,25.44
2022-08-17T11:10:37.492Z,25.55
2022-08-17T11:13:23.105Z,25.58
2022-08-17T11:16:08.786Z,25.77
2022-08-17T11:19:17.228Z,25.79
2022-08-17T11:21:56.582Z,25.71
2022-08-17T11:24:38.983Z,25.58
2022-08-17T11:27:29.042Z,25.54
2022-08-17T11:30:02.080Z,25.61
2022-08-17T11:32:58.325Z,25.63
2022-08-17T11:35:38.679Z,25.59
2022-08-17T11:38:25.713Z,25.50
2022-08-17T11:41:27.326Z,25.48
2022-08-17T11:44:18.481Z,25.33
2022-08-17T11:47:36.617Z,25.06
2022-08-17T11:50:46.347Z,25.24
2022-08-17T11:53:38.495Z,25.41
2022-08-17T11:56:11.944Z,25.70
2022-08-17T11:58:44.018Z,25.90
2022-08-17T12:01:13.723Z,25.92
2022-08-17T12:03:54.289Z,25.92
2022-08-17T12:06:31.782Z,26.43
2022-08-17T12:09:18.984Z,26.84
2022-08-17T12:11:58.664Z,27.21
2022-08-17T12:15:08.979Z,27.37
2022-08-17T12:17:52.274Z,27.51
2022-08-17T12:20:37.093Z,27.74
2022-08-17T12:23:44.174Z,28.16
2022-08-17T12:26:19.752Z,28.60
2022-08-17T12:28:49.808Z,28.98
2022-08-17T12:31:24.606Z,28.75
2022-08-17T12:33:52.520Z,28.94
2022-08-17T12:36:24.671Z,28.44
2022-08-17T12:39:13.756Z,29.09
2022-08-17T12:41:46.759Z,29.31
2022-08-17T12:44:50.446Z,29.22
2022-08-17T12:47:22.627Z,29.34
2022-08-17T12:49:51.481Z,29.21
2022-08-17T12:52:24.961Z,28.99
2022-08-17T12:55:06.790Z,28.94
2022-08-17T12:57:47.460Z,29.05
2022-08-17T13:00:23.219Z,29.27
2022-08-17T13:03:13.607Z,29.36
2022-08-17T13:05:53.791Z,29.17
2022-08-17T13:08:28.818Z,29.27
2022-08-17T13:11:10.066Z,28.96
2022-08-17T13:13:41.313Z,29.46
2022-08-17T13:16:11.336Z,29.70
2022-08-17T13:18:47.913Z,29.68
2022-08-17T13:21:26.662Z,29.34
2022-08-17T13:24:01.480Z,29.02
2022-08-17T13:26:37.599Z,28.97
2022-08-17T13:29:07.958Z,29.01
2022-08-17T13:31:51.993Z,29.22
2022-08-17T13:34:25.417Z,28.86
2022-08-17T13:37:18.354Z,28.89
2022-08-17T13:39:48.300Z,29.04
2022-08-17T13:42:50.411Z,29.14
2022-08-17T13:45:34.848Z,29.30
2022-08-17T13:48:15.717Z,29.03
2022-08-17T13:50:54.676Z,29.48
2022-08-17T13:53:27.540Z,29.27
2022-08-17T13:55:58.950Z,28.80
2022-08-17T13:58:38.035Z,28.69
2022-08-17T14:01:28.723Z,28.80
2022-08-17T14:03:57.283Z,28.47
2022-08-17T14:06:52.504Z,28.47
2022-08-17T14:09:24.094Z,28.45
2022-08-17T14:11:51.598Z,28.62
2022-08-17T14:14:18.946Z,28.71
2022-08-17T14:16:46.002Z,29.06
2022-08-17T14:19:14.348Z,28.74
2022-08-17T14:21:44.107Z,28.75
2022-08-17T14:24:21.096Z,28.69
2022-08-17T14:26:49.392Z,28.90
2022-08-17T14:29:16.746Z,28.95
2022-08-17T14:31:48.526Z,28.90
2022-08-17T14:34:25.002Z,29.04
2022-08-17T14:36:52.376Z,29.00
2022-08-17T14:39:20.016Z,28.66
2022-08-17T14:41:47.831Z,29.05
2022-08-17T14:44:15.225Z,29.35
2022-08-17T14:46:44.516Z,29.34
2022-08-17T14:49:12.823Z,29.04
2022-08-17T14:51:44.392Z,29.02
2022-08-17T14:54:32.830Z,28.85
2022-08-17T14:57:22.531Z,29.05
2022-08-17T14:59:53.234Z,29.29
2022-08-17T15:02:29.297Z,29.17
2022-08-17T15:05:05.948Z,29.33
2022-08-17T15:07:33.009Z,28.99
2022-08-17T15:10:01.431Z,29.00
2022-08-17T15:12:33.299Z,29.06
2022-08-17T15:15:05.440Z,29.40
2022-08-17T15:17:44.333Z,29.36
2022-08-17T15:20:17.347Z,29.26
2022-08-17T15:22:46.204Z,28.98
2022-08-17T15:25:13.751Z,29.14
2022-08-17T15:27:41.421Z,29.52
2022-08-17T15:30:10.011Z,29.74
2022-08-17T15:32:40.472Z,30.15
2022-08-17T15:35:11.364Z,30.30
2022-08-17T15:37:40.240Z,30.27
2022-08-17T15:40:09.883Z,30.58
2022-08-17T15:42:38.468Z,30.12
2022-08-17T15:45:09.855Z,29.61
2022-08-17T15:47:37.691Z,29.56
2022-08-17T15:50:07.070Z,29.94
2022-08-17T15:52:39.942Z,30.54
2022-08-17T15:55:11.804Z,30.76
2022-08-17T15:57:39.262Z,30.53
2022-08-17T16:00:08.652Z,30.24
2022-08-17T16:03:46.978Z,30.80
2022-08-17T16:05:31.895Z,30.87
2022-08-17T16:07:59.720Z,31.39
2022-08-17T16:10:35.729Z,31.85
2022-08-17T16:13:04.478Z,32.45
2022-08-17T16:15:32.123Z,32.67
2022-08-17T16:17:59.550Z,33.38
2022-08-17T16:20:27.059Z,34.16
2022-08-17T16:22:54.991Z,34.19
2022-08-17T16:25:52.411Z,34.30
2022-08-17T16:28:17.199Z,34.85
2022-08-17T16:30:44.827Z,33.59
2022-08-17T16:33:12.277Z,31.96
2022-08-17T16:35:39.498Z,32.25
2022-08-17T16:38:07.046Z,32.91
2022-08-17T16:40:36.161Z,32.59
2022-08-17T16:43:09.135Z,33.22
2022-08-17T16:45:40.216Z,34.18
2022-08-17T16:48:08.993Z,34.28
2022-08-17T16:50:36.713Z,34.30
2022-08-17T16:53:10.515Z,34.25
2022-08-17T16:55:38.360Z,34.79
2022-08-17T16:58:06.431Z,35.63
2022-08-17T17:00:33.948Z,35.48
2022-08-17T17:03:18.931Z,35.46
2022-08-17T17:06:13.572Z,34.98
2022-08-17T17:08:46.614Z,34.38
2022-08-17T17:11:33.664Z,34.76
2022-08-17T17:14:15.214Z,33.98
2022-08-17T17:17:18.803Z,33.67
2022-08-17T17:19:56.746Z,32.72
2022-08-17T17:22:41.062Z,32.45
2022-08-17T17:25:17.517Z,32.91
2022-08-17T17:27:57.094Z,33.34
2022-08-17T17:30:47.248Z,32.93
2022-08-17T17:33:19.610Z,32.98
2022-08-17T17:36:08.047Z,31.41
2022-08-17T17:38:48.945Z,30.12
2022-08-17T17:41:26.464Z,29.16
2022-08-17T17:44:08.019Z,28.52
2022-08-17T17:46:50.819Z,28.14
2022-08-17T17:49:18.610Z,27.99
2022-08-17T17:52:14.335Z,27.74
2022-08-17T17:55:24.778Z,27.51
2022-08-17T17:58:16.583Z,27.27
2022-08-17T18:01:15.586Z,27.17
2022-08-17T18:04:03.109Z,27.08
2022-08-17T18:07:15.141Z,27.05
2022-08-17T18:10:29.807Z,26.74
2022-08-17T18:13:09.804Z,26.66
2022-08-17T18:15:51.252Z,26.55
2022-08-17T18:18:18.329Z,26.52
2022-08-17T18:20:56.259Z,26.27
2022-08-17T18:23:28.311Z,26.08
2022-08-17T18:25:58.475Z,26.11
2022-08-17T18:28:31.518Z,25.91
2022-08-17T18:31:20.939Z,25.82
2022-08-17T18:33:51.551Z,25.62
2022-08-17T18:36:36.425Z,25.35
2022-08-17T18:39:15.242Z,25.45
2022-08-17T18:41:45.648Z,25.36
2022-08-17T18:44:31.104Z,25.13
2022-08-17T18:47:16.451Z,25.11
2022-08-17T18:49:46.709Z,24.98
2022-08-17T18:52:22.018Z,24.86
2022-08-17T18:55:16.247Z,24.77
2022-08-17T18:57:51.303Z,24.75
2022-08-17T19:00:21.247Z,24.66
2022-08-17T19:02:54.669Z,24.68
2022-08-17T19:05:37.701Z,24.55
2022-08-17T19:08:20.082Z,24.49
2022-08-17T19:10:55.612Z,24.37
2022-08-17T19:13:29.387Z,24.10
2022-08-17T19:16:11.610Z,24.29
2022-08-17T19:19:21.013Z,24.41
2022-08-17T19:21:53.134Z,24.32
2022-08-17T19:24:23.594Z,24.21
2022-08-17T19:27:06.212Z,24.16
2022-08-17T19:29:55.558Z,24.18
2022-08-17T19:32:27.096Z,24.03
2022-08-17T19:34:55.872Z,23.90
2022-08-17T19:37:28.632Z,23.83
2022-08-17T19:40:01.621Z,23.70
2022-08-17T19:42:51.553Z,23.75
2022-08-17T19:46:05.794Z,23.66
2022-08-17T19:49:11.276Z,23.60
2022-08-17T19:51:41.471Z,23.56
2022-08-17T19:54:38.087Z,23.58
2022-08-17T19:57:20.682Z,23.56
2022-08-17T20:00:00.486Z,23.69
2022-08-17T20:02:30.386Z,23.79
2022-08-17T20:05:01.937Z,23.78
2022-08-17T20:07:43.385Z,23.79
2022-08-17T20:10:20.534Z,23.70
2022-08-17T20:12:51.682Z,23.59
2022-08-17T20:15:29.568Z,23.61
2022-08-17T20:18:00.206Z,23.62
2022-08-17T20:20:49.113Z,23.55
2022-08-17T20:23:43.336Z,23.39
2022-08-17T20:26:26.276Z,23.30
2022-08-17T20:29:15.122Z,23.23
2022-08-17T20:31:42.249Z,23.12
2022-08-17T20:34:33.748Z,23.07
2022-08-17T20:37:07.237Z,23.05
2022-08-17T20:39:40.544Z,22.96
2022-08-17T20:42:27.813Z,22.85
2022-08-17T20:44:58.210Z,22.83
2022-08-17T20:48:00.946Z,22.71
2022-08-17T20:50:38.979Z,22.66
2022-08-17T20:53:09.979Z,22.54
2022-08-17T20:55:51.990Z,22.54
2022-08-17T20:58:23.174Z,22.50
2022-08-17T21:00:56.213Z,22.51
2022-08-17T21:03:23.946Z,22.48
2022-08-17T21:06:00.737Z,22.28
2022-08-17T21:08:33.841Z,22.15
2022-08-17T21:11:57.001Z,22.08
2022-08-17T21:14:33.567Z,22.14
2022-08-17T21:17:06.683Z,22.04
2022-08-17T21:20:13.546Z,22.01
2022-08-17T21:22:48.759Z,21.98
2022-08-17T21:25:37.075Z,21.96
2022-08-17T21:28:20.527Z,21.69
2022-08-17T21:30:56.391Z,21.83
2022-08-17T21:33:37.605Z,21.79
2022-08-17T21:36:11.513Z,21.77
2022-08-17T21:38:47.441Z,21.79
2022-08-17T21:41:27.263Z,21.76
2022-08-17T21:44:02.729Z,21.70
2022-08-17T21:46:36.753Z,21.69
2022-08-17T21:49:13.590Z,21.64
2022-08-17T21:51:49.871Z,21.63
2022-08-17T21:54:36.789Z,21.61
2022-08-17T21:57:18.022Z,21.58
2022-08-17T21:59:45.180Z,21.52
2022-08-17T22:02:21.261Z,21.52
2022-08-17T22:05:00.434Z,21.40
2022-08-17T22:08:02.294Z,21.33
2022-08-17T22:10:43.665Z,21.34
2022-08-17T22:13:19.782Z,21.21
2022-08-17T22:16:15.335Z,21.19
2022-08-17T22:18:58.657Z,21.13
2022-08-17T22:21:26.074Z,21.10
2022-08-17T22:24:06.109Z,21.04
2022-08-17T22:27:12.880Z,21.25
2022-08-17T22:29:57.179Z,21.23
2022-08-17T22:32:41.562Z,21.01
2022-08-17T22:35:37.759Z,20.99
2022-08-17T22:38:19.826Z,21.02
2022-08-17T22:40:49.902Z,20.93
2022-08-17T22:43:21.175Z,20.94
2022-08-17T22:45:57.188Z,20.87
2022-08-17T22:48:27.478Z,20.88
2022-08-17T22:51:13.804Z,20.85
2022-08-17T22:54:14.872Z,20.79
2022-08-17T22:57:18.690Z,20.69
2022-08-17T22:59:55.014Z,20.35
2022-08-17T23:02:28.551Z,20.59
2022-08-17T23:05:18.859Z,20.54
2022-08-17T23:07:47.194Z,20.57
2022-08-17T23:10:14.749Z,20.11
2022-08-17T23:12:42.097Z,20.07
2022-08-17T23:15:14.275Z,20.22
2022-08-17T23:17:42.038Z,20.28
2022-08-17T23:20:12.914Z,20.15
2022-08-17T23:22:51.911Z,20.15
2022-08-17T23:25:28.908Z,20.14
2022-08-17T23:27:57.533Z,20.09
2022-08-17T23:30:25.535Z,20.05
2022-08-17T23:32:54.244Z,19.95
2022-08-17T23:35:39.074Z,19.88
2022-08-17T23:38:10.000Z,19.80
2022-08-17T23:40:39.349Z,19.45
2022-08-17T23:43:17.542Z,19.77
2022-08-17T23:45:54.192Z,19.80
2022-08-17T23:48:36.159Z,19.63
2022-08-17T23:51:09.474Z,19.68
2022-08-17T23:53:40.140Z,19.62
2022-08-17T23:56:11.066Z,19.61
2022-08-17T23:58:42.119Z,19.54
